createdAt,value
2018-06-30T00:00:34.242Z,9.23
2018-06-30T00:01:38.377Z,8.63
2018-06-30T00:02:42.463Z,8.95
2018-06-30T00:03:51.894Z,8.78
2018-06-30T00:04:56.023Z,8.08
2018-06-30T00:06:00.162Z,8.58
2018-06-30T00:07:04.265Z,8.70
2018-06-30T00:08:08.451Z,8.65
2018-06-30T00:09:12.563Z,8.05
2018-06-30T00:10:32.064Z,8.95
2018-06-30T00:11:36.781Z,8.95
2018-06-30T00:12:41.006Z,8.63
2018-06-30T00:13:45.103Z,8.65
2018-06-30T00:14:49.302Z,9.15
2018-06-30T00:15:53.445Z,9.05
2018-06-30T00:16:57.521Z,8.50
2018-06-30T00:18:01.352Z,8.65
2018-06-30T00:19:05.096Z,9.48
2018-06-30T00:20:09.133Z,9.28
2018-06-30T00:21:13.271Z,8.83
2018-06-30T00:22:17.344Z,8.78
2018-06-30T00:23:21.492Z,8.78
2018-06-30T00:24:25.576Z,9.15
2018-06-30T00:25:29.667Z,9.18
2018-06-30T00:26:33.831Z,8.68
2018-06-30T00:27:37.896Z,8.40
2018-06-30T00:28:42.024Z,8.80
2018-06-30T00:29:46.170Z,9.10
2018-06-30T00:30:50.319Z,8.95
2018-06-30T00:31:54.466Z,8.48
2018-06-30T00:32:58.584Z,9.05
2018-06-30T00:34:02.708Z,9.43
2018-06-30T00:35:06.770Z,8.13
2018-06-30T00:36:10.996Z,9.00
2018-06-30T00:37:15.129Z,7.72
2018-06-30T00:38:19.335Z,8.00
2018-06-30T00:39:23.391Z,7.60
2018-06-30T00:40:27.261Z,7.85
2018-06-30T00:41:31.341Z,8.10
2018-06-30T00:42:35.434Z,7.80
2018-06-30T00:43:39.502Z,8.10
2018-06-30T00:44:43.673Z,7.20
2018-06-30T00:45:47.899Z,8.23
2018-06-30T00:46:52.013Z,7.92
2018-06-30T00:47:56.257Z,7.70
2018-06-30T00:49:00.405Z,7.72
2018-06-30T00:50:04.946Z,8.13
2018-06-30T00:51:09.083Z,8.28
2018-06-30T00:52:13.381Z,7.37
2018-06-30T00:53:17.472Z,7.85
2018-06-30T00:54:21.623Z,7.72
2018-06-30T00:55:25.727Z,8.25
2018-06-30T00:56:29.935Z,8.00
2018-06-30T00:57:33.986Z,7.75
2018-06-30T00:58:38.147Z,7.50
2018-06-30T00:59:42.329Z,8.13
2018-06-30T01:00:46.497Z,8.13
2018-06-30T01:01:50.640Z,7.45
2018-06-30T01:02:54.856Z,7.87
2018-06-30T01:03:58.948Z,7.25
2018-06-30T01:05:03.124Z,7.47
2018-06-30T01:06:07.265Z,7.53
2018-06-30T01:07:11.419Z,7.75
2018-06-30T01:08:15.560Z,8.43
2018-06-30T01:09:19.651Z,8.13
2018-06-30T01:10:23.739Z,7.60
2018-06-30T01:11:27.885Z,8.10
2018-06-30T01:12:32.042Z,7.80
2018-06-30T01:13:36.103Z,7.87
2018-06-30T01:14:40.193Z,7.80
2018-06-30T01:15:44.343Z,7.50
2018-06-30T01:16:48.574Z,7.85
2018-06-30T01:17:52.712Z,7.55
2018-06-30T01:18:56.817Z,7.62
2018-06-30T01:20:00.943Z,7.37
2018-06-30T01:21:04.923Z,7.97
2018-06-30T01:22:09.209Z,7.53
2018-06-30T01:23:13.546Z,7.53
2018-06-30T01:24:17.716Z,7.50
2018-06-30T01:25:21.829Z,7.67
2018-06-30T01:26:26.576Z,7.97
2018-06-30T01:27:30.755Z,7.85
2018-06-30T01:28:34.847Z,7.65
2018-06-30T01:29:38.971Z,7.45
2018-06-30T01:30:43.067Z,7.55
2018-06-30T01:31:47.241Z,7.83
2018-06-30T01:32:51.316Z,6.75
2018-06-30T01:33:55.112Z,7.45
2018-06-30T01:34:59.086Z,7.85
2018-06-30T01:36:03.222Z,7.03
2018-06-30T01:37:07.040Z,7.80
2018-06-30T01:38:11.049Z,7.37
2018-06-30T01:39:15.190Z,7.78
2018-06-30T01:40:19.056Z,7.53
2018-06-30T01:41:23.108Z,7.67
2018-06-30T01:42:27.213Z,8.23
2018-06-30T01:43:31.286Z,7.80
2018-06-30T01:44:35.415Z,7.87
2018-06-30T01:45:39.571Z,8.68
2018-06-30T01:46:43.729Z,8.10
2018-06-30T01:47:47.812Z,8.88
2018-06-30T01:48:51.919Z,8.20
2018-06-30T01:49:56.058Z,8.15
2018-06-30T01:51:06.320Z,7.40
2018-06-30T01:52:16.384Z,7.95
2018-06-30T01:53:26.441Z,7.67
2018-06-30T01:54:36.589Z,8.15
2018-06-30T01:55:46.777Z,8.00
2018-06-30T01:56:50.981Z,7.50
2018-06-30T01:57:55.063Z,8.05
2018-06-30T01:58:59.241Z,8.88
2018-06-30T02:00:03.410Z,8.70
2018-06-30T02:01:07.605Z,8.68
2018-06-30T02:02:11.731Z,8.80
2018-06-30T02:03:15.840Z,8.90
2018-06-30T02:04:19.921Z,8.30
2018-06-30T02:05:24.085Z,8.03
2018-06-30T02:06:28.215Z,8.03
2018-06-30T02:07:32.404Z,8.38
2018-06-30T02:08:36.743Z,8.03
2018-06-30T02:09:40.937Z,7.55
2018-06-30T02:10:45.077Z,8.25
2018-06-30T02:11:49.913Z,8.20
2018-06-30T02:12:54.020Z,7.95
2018-06-30T02:13:58.091Z,8.20
2018-06-30T02:15:02.229Z,8.88
2018-06-30T02:16:06.333Z,8.78
2018-06-30T02:17:10.517Z,8.60
2018-06-30T02:18:14.584Z,8.40
2018-06-30T02:19:18.697Z,8.45
2018-06-30T02:20:22.888Z,8.55
2018-06-30T02:21:26.991Z,9.28
2018-06-30T02:22:31.095Z,8.05
2018-06-30T02:23:35.313Z,9.35
2018-06-30T02:24:39.338Z,9.13
2018-06-30T02:25:43.324Z,8.93
2018-06-30T02:26:47.425Z,8.03
2018-06-30T02:27:51.582Z,8.15
2018-06-30T02:28:55.720Z,9.00
2018-06-30T02:29:59.910Z,8.33
2018-06-30T02:31:03.942Z,7.67
2018-06-30T02:32:08.180Z,8.93
2018-06-30T02:33:12.232Z,8.48
2018-06-30T02:34:16.457Z,8.25
2018-06-30T02:35:20.662Z,8.53
2018-06-30T02:36:24.777Z,8.65
2018-06-30T02:37:28.909Z,8.55
2018-06-30T02:38:32.706Z,8.88
2018-06-30T02:39:36.695Z,8.20
2018-06-30T02:40:40.864Z,7.92
2018-06-30T02:41:44.966Z,8.13
2018-06-30T02:42:49.171Z,7.92
2018-06-30T02:43:53.441Z,8.70
2018-06-30T02:44:57.642Z,9.10
2018-06-30T02:46:02.009Z,8.28
2018-06-30T02:47:06.036Z,8.83
2018-06-30T02:48:10.157Z,8.23
2018-06-30T02:49:14.250Z,8.85
2018-06-30T02:50:18.414Z,9.23
2018-06-30T02:51:22.582Z,9.30
2018-06-30T02:52:27.033Z,8.50
2018-06-30T02:53:31.147Z,9.63
2018-06-30T02:54:35.323Z,8.93
2018-06-30T02:55:39.573Z,9.00
2018-06-30T02:56:43.722Z,8.35
2018-06-30T02:57:47.851Z,8.63
2018-06-30T02:58:51.941Z,8.88
2018-06-30T02:59:56.085Z,8.83
2018-06-30T03:01:00.217Z,8.40
2018-06-30T03:02:04.320Z,8.53
2018-06-30T03:03:08.481Z,8.10
2018-06-30T03:04:12.581Z,8.25
2018-06-30T03:05:16.720Z,9.33
2018-06-30T03:06:20.915Z,8.60
2018-06-30T03:07:25.060Z,7.83
2018-06-30T03:08:29.103Z,9.10
2018-06-30T03:09:33.174Z,8.95
2018-06-30T03:10:37.369Z,9.20
2018-06-30T03:11:41.432Z,8.95
2018-06-30T03:12:45.433Z,8.95
2018-06-30T03:13:49.556Z,8.75
2018-06-30T03:14:53.687Z,8.13
2018-06-30T03:15:57.813Z,8.70
2018-06-30T03:17:01.922Z,8.18
2018-06-30T03:18:06.060Z,8.15
2018-06-30T03:19:10.368Z,8.60
2018-06-30T03:20:14.374Z,8.33
2018-06-30T03:21:21.361Z,8.63
2018-06-30T03:22:25.534Z,8.25
2018-06-30T03:23:29.355Z,8.10
2018-06-30T03:24:33.390Z,7.70
2018-06-30T03:25:37.456Z,7.55
2018-06-30T03:26:41.595Z,7.53
2018-06-30T03:27:45.818Z,7.28
2018-06-30T03:28:49.921Z,7.85
2018-06-30T03:29:54.099Z,8.08
2018-06-30T03:30:58.195Z,7.95
2018-06-30T03:32:02.287Z,8.75
2018-06-30T03:33:06.465Z,8.00
2018-06-30T03:34:10.541Z,7.85
2018-06-30T03:35:14.636Z,7.60
2018-06-30T03:36:18.752Z,7.20
2018-06-30T03:37:22.794Z,7.10
2018-06-30T03:38:26.917Z,7.85
2018-06-30T03:39:31.082Z,7.87
2018-06-30T03:40:35.217Z,7.28
2018-06-30T03:41:39.328Z,8.08
2018-06-30T03:42:43.488Z,8.20
2018-06-30T03:43:47.614Z,7.67
2018-06-30T03:44:51.716Z,8.65
2018-06-30T03:45:55.805Z,7.58
2018-06-30T03:46:59.933Z,7.90
2018-06-30T03:48:04.396Z,7.60
2018-06-30T03:49:08.806Z,7.67
2018-06-30T03:50:12.974Z,7.90
2018-06-30T03:51:17.091Z,8.23
2018-06-30T03:52:21.197Z,9.08
2018-06-30T03:53:25.303Z,7.90
2018-06-30T03:54:29.429Z,7.78
2018-06-30T03:55:33.584Z,7.12
2018-06-30T03:56:37.783Z,7.90
2018-06-30T03:57:41.992Z,7.80
2018-06-30T03:58:46.160Z,8.05
2018-06-30T03:59:50.244Z,6.92
2018-06-30T04:00:54.371Z,8.83
2018-06-30T04:01:58.477Z,7.20
2018-06-30T04:03:02.630Z,7.60
2018-06-30T04:04:06.911Z,6.92
2018-06-30T04:05:11.053Z,7.60
2018-06-30T04:06:15.165Z,7.58
2018-06-30T04:07:19.291Z,7.05
2018-06-30T04:08:23.432Z,7.20
2018-06-30T04:09:27.548Z,7.42
2018-06-30T04:10:31.668Z,7.80
2018-06-30T04:11:35.985Z,7.37
2018-06-30T04:12:39.842Z,6.92
2018-06-30T04:13:43.933Z,6.65
2018-06-30T04:14:48.112Z,6.90
2018-06-30T04:15:52.223Z,6.58
2018-06-30T04:16:56.421Z,7.58
2018-06-30T04:18:00.535Z,6.67
2018-06-30T04:19:10.093Z,6.95
2018-06-30T04:20:14.261Z,7.30
2018-06-30T04:21:18.391Z,7.30
2018-06-30T04:22:22.481Z,7.55
2018-06-30T04:23:26.635Z,7.83
2018-06-30T04:24:30.782Z,7.78
2018-06-30T04:25:35.067Z,7.12
2018-06-30T04:26:40.012Z,7.28
2018-06-30T04:27:44.157Z,8.35
2018-06-30T04:28:48.285Z,6.97
2018-06-30T04:29:52.346Z,7.12
2018-06-30T04:30:56.568Z,7.20
2018-06-30T04:32:00.757Z,7.42
2018-06-30T04:33:05.252Z,7.55
2018-06-30T04:34:09.647Z,6.97
2018-06-30T04:35:13.786Z,6.92
2018-06-30T04:36:17.908Z,7.08
2018-06-30T04:37:22.093Z,6.70
2018-06-30T04:38:26.201Z,6.67
2018-06-30T04:39:30.376Z,6.83
2018-06-30T04:40:34.532Z,7.17
2018-06-30T04:41:38.713Z,7.67
2018-06-30T04:42:42.842Z,7.30
2018-06-30T04:43:46.926Z,7.45
2018-06-30T04:44:51.072Z,6.78
2018-06-30T04:45:55.148Z,7.40
2018-06-30T04:46:59.303Z,7.45
2018-06-30T04:48:03.383Z,7.08
2018-06-30T04:49:07.487Z,7.58
2018-06-30T04:50:11.657Z,7.47
2018-06-30T04:51:15.838Z,7.20
2018-06-30T04:52:20.018Z,7.47
2018-06-30T04:53:24.137Z,8.00
2018-06-30T04:54:28.231Z,6.85
2018-06-30T04:55:32.343Z,7.22
2018-06-30T04:56:36.387Z,6.65
2018-06-30T04:57:40.513Z,7.03
2018-06-30T04:58:44.658Z,7.30
2018-06-30T04:59:48.768Z,6.47
2018-06-30T05:00:52.973Z,7.40
2018-06-30T05:01:57.033Z,7.30
2018-06-30T05:03:01.241Z,7.33
2018-06-30T05:04:05.305Z,7.37
2018-06-30T05:05:09.428Z,6.92
2018-06-30T05:06:13.571Z,6.70
2018-06-30T05:07:17.412Z,6.97
2018-06-30T05:08:21.437Z,7.15
2018-06-30T05:09:25.645Z,6.70
2018-06-30T05:10:29.762Z,7.40
2018-06-30T05:11:33.957Z,7.05
2018-06-30T05:12:37.811Z,6.17
2018-06-30T05:13:41.743Z,6.55
2018-06-30T05:14:45.976Z,6.35
2018-06-30T05:15:50.293Z,6.50
2018-06-30T05:16:54.401Z,6.60
2018-06-30T05:17:58.573Z,6.10
2018-06-30T05:19:02.688Z,7.03
2018-06-30T05:20:06.981Z,6.37
2018-06-30T05:21:11.089Z,6.45
2018-06-30T05:22:15.210Z,6.53
2018-06-30T05:23:19.297Z,5.85
2018-06-30T05:24:23.422Z,6.33
2018-06-30T05:25:28.001Z,5.90
2018-06-30T05:26:32.175Z,6.25
2018-06-30T05:27:36.510Z,6.30
2018-06-30T05:28:40.721Z,5.75
2018-06-30T05:29:44.824Z,6.03
2018-06-30T05:30:48.953Z,6.03
2018-06-30T05:31:53.043Z,5.90
2018-06-30T05:32:57.154Z,6.50
2018-06-30T05:34:01.277Z,5.85
2018-06-30T05:35:05.513Z,6.05
2018-06-30T05:36:09.678Z,6.28
2018-06-30T05:37:13.782Z,5.87
2018-06-30T05:38:17.943Z,6.05
2018-06-30T05:39:22.017Z,5.75
2018-06-30T05:40:26.093Z,6.03
2018-06-30T05:41:30.203Z,5.70
2018-06-30T05:42:34.348Z,5.75
2018-06-30T05:43:38.587Z,5.08
2018-06-30T05:44:42.751Z,5.20
2018-06-30T05:45:46.920Z,6.83
2018-06-30T05:46:51.177Z,5.33
2018-06-30T05:47:55.420Z,5.35
2018-06-30T05:48:59.613Z,5.25
2018-06-30T05:50:03.753Z,6.12
2018-06-30T05:51:07.875Z,6.35
2018-06-30T05:52:12.049Z,5.70
2018-06-30T05:53:16.180Z,5.50
2018-06-30T05:54:20.293Z,5.50
2018-06-30T05:55:24.417Z,5.90
2018-06-30T05:56:28.499Z,5.62
2018-06-30T05:57:32.327Z,6.25
2018-06-30T05:58:36.306Z,5.62
2018-06-30T05:59:40.492Z,5.58
2018-06-30T06:00:44.621Z,5.90
2018-06-30T06:01:48.706Z,5.70
2018-06-30T06:02:52.787Z,5.75
2018-06-30T06:03:56.911Z,5.90
2018-06-30T06:05:01.062Z,4.75
2018-06-30T06:06:05.327Z,5.42
2018-06-30T06:07:09.505Z,5.78
2018-06-30T06:08:13.664Z,5.30
2018-06-30T06:09:17.802Z,5.90
2018-06-30T06:10:21.953Z,5.37
2018-06-30T06:11:26.082Z,5.22
2018-06-30T06:12:30.247Z,5.60
2018-06-30T06:13:34.396Z,5.47
2018-06-30T06:14:38.537Z,5.40
2018-06-30T06:15:42.765Z,5.30
2018-06-30T06:16:46.893Z,5.62
2018-06-30T06:17:51.065Z,5.55
2018-06-30T06:18:55.131Z,5.25
2018-06-30T06:19:59.297Z,5.62
2018-06-30T06:21:03.545Z,5.40
2018-06-30T06:22:07.656Z,6.20
2018-06-30T06:23:11.826Z,5.62
2018-06-30T06:24:15.979Z,5.20
2018-06-30T06:25:20.099Z,5.67
2018-06-30T06:26:24.325Z,5.00
2018-06-30T06:27:28.526Z,5.22
2018-06-30T06:28:32.643Z,6.17
2018-06-30T06:29:36.990Z,5.95
2018-06-30T06:30:41.035Z,5.95
2018-06-30T06:31:45.200Z,5.80
2018-06-30T06:32:49.378Z,5.87
2018-06-30T06:33:53.470Z,7.10
2018-06-30T06:34:57.557Z,6.83
2018-06-30T06:36:01.779Z,5.58
2018-06-30T06:37:06.255Z,5.85
2018-06-30T06:38:10.437Z,5.72
2018-06-30T06:39:14.639Z,5.30
2018-06-30T06:40:18.823Z,5.42
2018-06-30T06:41:22.996Z,5.75
2018-06-30T06:42:27.149Z,6.15
2018-06-30T06:43:31.252Z,5.87
2018-06-30T06:44:35.562Z,5.97
2018-06-30T06:45:39.602Z,6.50
2018-06-30T06:46:43.665Z,6.35
2018-06-30T06:47:47.853Z,6.00
2018-06-30T06:48:51.922Z,6.42
2018-06-30T06:49:56.060Z,5.83
2018-06-30T06:51:00.232Z,5.67
2018-06-30T06:52:04.434Z,6.17
2018-06-30T06:53:08.542Z,6.28
2018-06-30T06:54:12.614Z,6.10
2018-06-30T06:55:16.725Z,5.80
2018-06-30T06:56:20.639Z,5.62
2018-06-30T06:57:24.568Z,6.03
2018-06-30T06:58:28.739Z,6.22
2018-06-30T06:59:32.842Z,6.20
2018-06-30T07:00:36.911Z,6.30
2018-06-30T07:01:40.995Z,6.28
2018-06-30T07:02:45.183Z,6.33
2018-06-30T07:03:49.365Z,5.75
2018-06-30T07:04:53.546Z,6.35
2018-06-30T07:05:57.711Z,6.12
2018-06-30T07:07:01.981Z,7.47
2018-06-30T07:08:06.107Z,6.85
2018-06-30T07:09:11.645Z,6.17
2018-06-30T07:10:15.890Z,6.28
2018-06-30T07:11:19.964Z,6.78
2018-06-30T07:12:24.120Z,6.83
2018-06-30T07:13:28.249Z,6.60
2018-06-30T07:14:32.326Z,6.58
2018-06-30T07:15:36.282Z,6.87
2018-06-30T07:16:40.313Z,6.15
2018-06-30T07:17:44.405Z,6.50
2018-06-30T07:18:48.566Z,7.00
2018-06-30T07:19:52.722Z,6.83
2018-06-30T07:20:56.813Z,7.17
2018-06-30T07:22:00.989Z,7.60
2018-06-30T07:23:05.173Z,7.70
2018-06-30T07:24:09.345Z,7.85
2018-06-30T07:25:13.191Z,8.10
2018-06-30T07:26:17.262Z,8.15
2018-06-30T07:27:21.416Z,8.23
2018-06-30T07:28:25.725Z,7.87
2018-06-30T07:29:29.753Z,8.25
2018-06-30T07:30:33.890Z,8.25
2018-06-30T07:31:38.164Z,7.40
2018-06-30T07:32:42.273Z,7.40
2018-06-30T07:33:46.264Z,8.83
2018-06-30T07:34:50.277Z,9.33
2018-06-30T07:35:54.446Z,8.88
2018-06-30T07:36:58.520Z,8.85
2018-06-30T07:38:02.638Z,9.25
2018-06-30T07:39:08.768Z,9.45
2018-06-30T07:40:12.923Z,8.95
2018-06-30T07:41:17.093Z,9.10
2018-06-30T07:42:21.333Z,8.55
2018-06-30T07:43:25.776Z,9.33
2018-06-30T07:44:29.619Z,8.03
2018-06-30T07:45:33.599Z,7.70
2018-06-30T07:46:37.833Z,7.85
2018-06-30T07:47:41.952Z,8.73
2018-06-30T07:48:46.068Z,8.88
2018-06-30T07:49:50.511Z,8.05
2018-06-30T07:50:54.596Z,7.67
2018-06-30T07:51:58.745Z,8.15
2018-06-30T07:53:02.873Z,7.90
2018-06-30T07:54:07.087Z,8.75
2018-06-30T07:55:11.352Z,7.58
2018-06-30T07:56:15.309Z,8.08
2018-06-30T07:57:19.170Z,9.05
2018-06-30T07:58:23.219Z,8.63
2018-06-30T07:59:27.569Z,9.40
2018-06-30T08:00:31.813Z,8.78
2018-06-30T08:01:35.791Z,8.45
2018-06-30T08:02:39.931Z,7.90
2018-06-30T08:03:44.024Z,8.63
2018-06-30T08:04:48.130Z,7.70
2018-06-30T08:05:52.190Z,8.70
2018-06-30T08:06:56.317Z,8.50
2018-06-30T08:08:00.625Z,8.80
2018-06-30T08:09:07.372Z,8.60
2018-06-30T08:10:11.595Z,7.87
2018-06-30T08:11:15.733Z,8.10
2018-06-30T08:12:19.919Z,7.90
2018-06-30T08:13:24.023Z,7.72
2018-06-30T08:14:28.160Z,8.38
2018-06-30T08:15:32.362Z,8.08
2018-06-30T08:16:36.551Z,35.63
2018-06-30T08:17:40.705Z,56.73
2018-06-30T08:18:44.809Z,42.55
2018-06-30T08:19:48.980Z,19.02
2018-06-30T08:20:53.153Z,14.30
2018-06-30T08:21:57.275Z,12.23
2018-06-30T08:23:01.481Z,10.32
2018-06-30T08:24:05.644Z,9.03
2018-06-30T08:25:09.795Z,9.00
2018-06-30T08:26:14.250Z,8.57
2018-06-30T08:27:18.289Z,8.93
2018-06-30T08:28:22.473Z,8.43
2018-06-30T08:29:26.641Z,8.10
2018-06-30T08:30:30.743Z,7.67
2018-06-30T08:31:34.913Z,8.27
2018-06-30T08:32:39.052Z,8.60
2018-06-30T08:33:43.048Z,7.63
2018-06-30T08:34:47.025Z,8.20
2018-06-30T08:35:51.139Z,7.57
2018-06-30T08:36:55.315Z,8.30
2018-06-30T08:37:59.579Z,8.20
2018-06-30T08:39:05.837Z,8.50
2018-06-30T08:40:09.985Z,8.33
2018-06-30T08:41:14.091Z,9.23
2018-06-30T08:42:18.144Z,8.30
2018-06-30T08:43:22.270Z,8.83
2018-06-30T08:44:26.473Z,8.60
2018-06-30T08:45:30.563Z,8.63
2018-06-30T08:46:34.674Z,9.10
2018-06-30T08:47:39.051Z,8.47
2018-06-30T08:48:42.823Z,8.03
2018-06-30T08:49:46.774Z,10.30
2018-06-30T08:50:50.879Z,14.70
2018-06-30T08:51:55.044Z,26.47
2018-06-30T08:52:59.239Z,117.17
2018-06-30T08:54:03.507Z,43.40
2018-06-30T08:55:07.667Z,18.83
2018-06-30T08:56:11.895Z,12.87
2018-06-30T08:57:16.059Z,10.17
2018-06-30T08:58:20.220Z,9.40
2018-06-30T08:59:24.280Z,8.30
2018-06-30T09:00:28.574Z,7.90
2018-06-30T09:01:32.773Z,7.70
2018-06-30T09:02:36.883Z,7.67
2018-06-30T09:03:41.059Z,7.07
2018-06-30T09:04:45.066Z,7.40
2018-06-30T09:05:49.208Z,7.37
2018-06-30T09:06:53.331Z,7.93
2018-06-30T09:07:57.442Z,7.67
2018-06-30T09:09:01.599Z,7.50
2018-06-30T09:10:05.744Z,7.83
2018-06-30T09:11:09.839Z,7.57
2018-06-30T09:12:14.083Z,7.40
2018-06-30T09:13:18.245Z,7.60
2018-06-30T09:14:22.344Z,7.30
2018-06-30T09:15:26.499Z,6.70
2018-06-30T09:16:30.619Z,6.80
2018-06-30T09:17:34.792Z,6.67
2018-06-30T09:18:38.855Z,6.23
2018-06-30T09:19:42.951Z,6.03
2018-06-30T09:20:47.090Z,5.83
2018-06-30T09:21:51.238Z,6.43
2018-06-30T09:22:55.389Z,6.27
2018-06-30T09:23:59.548Z,5.80
2018-06-30T09:25:03.743Z,6.27
2018-06-30T09:26:07.859Z,6.33
2018-06-30T09:27:11.990Z,5.93
2018-06-30T09:28:16.087Z,5.40
2018-06-30T09:29:20.220Z,5.60
2018-06-30T09:30:24.396Z,5.93
2018-06-30T09:31:28.536Z,4.90
2018-06-30T09:32:32.678Z,4.93
2018-06-30T09:33:36.825Z,5.37
2018-06-30T09:34:41.115Z,4.90
2018-06-30T09:35:45.225Z,4.90
2018-06-30T09:36:49.396Z,5.17
2018-06-30T09:37:53.692Z,4.77
2018-06-30T09:38:58.031Z,4.20
2018-06-30T09:40:02.295Z,4.70
2018-06-30T09:41:06.449Z,4.53
2018-06-30T09:42:10.616Z,4.93
2018-06-30T09:43:14.804Z,4.33
2018-06-30T09:44:19.031Z,5.00
2018-06-30T09:45:23.211Z,4.27
2018-06-30T09:46:27.373Z,4.03
2018-06-30T09:47:31.491Z,4.97
2018-06-30T09:48:35.905Z,5.43
2018-06-30T09:49:40.171Z,5.07
2018-06-30T09:50:44.258Z,4.83
2018-06-30T09:51:48.216Z,5.03
2018-06-30T09:52:52.309Z,31.47
2018-06-30T09:53:56.465Z,29.50
2018-06-30T09:55:00.617Z,13.97
2018-06-30T09:56:05.094Z,9.07
2018-06-30T09:57:09.525Z,6.60
2018-06-30T09:58:13.633Z,6.00
2018-06-30T09:59:17.892Z,5.57
2018-06-30T10:00:27.387Z,4.80
2018-06-30T10:01:31.438Z,5.70
2018-06-30T10:02:35.553Z,5.07
2018-06-30T10:03:39.682Z,5.30
2018-06-30T10:04:43.861Z,6.20
2018-06-30T10:05:48.041Z,5.20
2018-06-30T10:06:53.098Z,5.50
2018-06-30T10:07:57.142Z,5.40
2018-06-30T10:09:01.074Z,5.50
2018-06-30T10:10:05.243Z,6.40
2018-06-30T10:11:09.371Z,5.80
2018-06-30T10:12:13.475Z,5.97
2018-06-30T10:13:18.595Z,6.13
2018-06-30T10:14:22.969Z,5.43
2018-06-30T10:15:27.138Z,6.30
2018-06-30T10:16:31.379Z,5.83
2018-06-30T10:17:35.542Z,6.10
2018-06-30T10:18:39.733Z,5.73
2018-06-30T10:19:43.905Z,6.10
2018-06-30T10:20:47.760Z,6.13
2018-06-30T10:21:51.804Z,6.10
2018-06-30T10:22:55.955Z,5.93
2018-06-30T10:24:00.143Z,6.43
2018-06-30T10:25:04.318Z,6.73
2018-06-30T10:26:08.510Z,6.37
2018-06-30T10:27:12.881Z,6.03
2018-06-30T10:28:17.120Z,6.43
2018-06-30T10:29:21.482Z,6.83
2018-06-30T10:30:25.648Z,6.23
2018-06-30T10:31:29.839Z,6.10
2018-06-30T10:32:34.004Z,6.00
2018-06-30T10:33:38.267Z,6.20
2018-06-30T10:34:42.746Z,6.20
2018-06-30T10:35:46.833Z,5.80
2018-06-30T10:36:51.014Z,6.20
2018-06-30T10:37:55.308Z,6.50
2018-06-30T10:38:59.516Z,6.63
2018-06-30T10:40:03.705Z,6.13
2018-06-30T10:41:07.564Z,5.80
2018-06-30T10:42:11.621Z,5.83
2018-06-30T10:43:15.715Z,5.97
2018-06-30T10:44:19.892Z,6.87
2018-06-30T10:45:24.136Z,6.00
2018-06-30T10:46:27.951Z,5.77
2018-06-30T10:47:32.048Z,5.90
2018-06-30T10:48:36.157Z,5.80
2018-06-30T10:49:40.400Z,6.00
2018-06-30T10:50:44.579Z,5.50
2018-06-30T10:51:48.893Z,5.90
2018-06-30T10:52:53.078Z,7.83
2018-06-30T10:53:57.184Z,5.57
2018-06-30T10:55:01.397Z,5.17
2018-06-30T10:56:05.560Z,7.20
2018-06-30T10:57:09.706Z,5.47
2018-06-30T10:58:13.823Z,5.47
2018-06-30T10:59:17.990Z,5.10
2018-06-30T11:00:22.236Z,5.50
2018-06-30T11:01:26.365Z,4.67
2018-06-30T11:02:30.506Z,5.10
2018-06-30T11:03:34.620Z,4.30
2018-06-30T11:04:38.716Z,4.40
2018-06-30T11:05:42.908Z,4.50
2018-06-30T11:06:46.697Z,4.57
2018-06-30T11:07:50.836Z,4.13
2018-06-30T11:08:55.004Z,4.70
2018-06-30T11:09:59.298Z,3.80
2018-06-30T11:11:03.513Z,3.63
2018-06-30T11:12:07.541Z,4.40
2018-06-30T11:13:11.842Z,3.83
2018-06-30T11:14:16.033Z,2.93
2018-06-30T11:15:20.172Z,4.60
2018-06-30T11:16:24.335Z,3.47
2018-06-30T11:17:28.506Z,4.47
2018-06-30T11:18:32.654Z,3.20
2018-06-30T11:19:36.881Z,2.93
2018-06-30T11:20:41.008Z,3.27
2018-06-30T11:21:45.223Z,4.33
2018-06-30T11:22:49.344Z,3.80
2018-06-30T11:23:53.465Z,3.63
2018-06-30T11:24:57.626Z,3.30
2018-06-30T11:26:01.764Z,3.33
2018-06-30T11:27:05.992Z,2.73
2018-06-30T11:28:10.119Z,4.87
2018-06-30T11:29:14.361Z,13.57
2018-06-30T11:30:18.545Z,14.17
2018-06-30T11:31:22.706Z,12.83
2018-06-30T11:32:26.795Z,5.47
2018-06-30T11:33:30.933Z,4.03
2018-06-30T11:34:35.015Z,7.07
2018-06-30T11:35:39.420Z,21.50
2018-06-30T11:36:43.663Z,20.20
2018-06-30T11:37:47.780Z,13.50
2018-06-30T11:38:51.873Z,12.73
2018-06-30T11:39:56.048Z,9.23
2018-06-30T11:41:00.228Z,7.43
2018-06-30T11:42:04.379Z,5.30
2018-06-30T11:43:08.440Z,4.60
2018-06-30T11:44:13.123Z,4.30
2018-06-30T11:45:17.233Z,3.90
2018-06-30T11:46:21.371Z,3.50
2018-06-30T11:47:25.432Z,3.97
2018-06-30T11:48:29.602Z,5.10
2018-06-30T11:49:33.889Z,5.90
2018-06-30T11:50:38.191Z,5.10
2018-06-30T11:51:42.391Z,4.73
2018-06-30T11:52:46.575Z,3.67
2018-06-30T11:53:50.802Z,3.47
2018-06-30T11:54:55.025Z,7.10
2018-06-30T11:55:59.187Z,9.53
2018-06-30T11:57:03.284Z,6.00
2018-06-30T11:58:07.452Z,4.40
2018-06-30T11:59:11.960Z,3.63
2018-06-30T12:00:16.080Z,3.40
2018-06-30T12:01:20.167Z,2.90
2018-06-30T12:02:24.275Z,5.80
2018-06-30T12:03:28.295Z,3.10
2018-06-30T12:04:32.283Z,3.30
2018-06-30T12:05:36.413Z,2.93
2018-06-30T12:06:40.529Z,2.80
2018-06-30T12:07:44.818Z,2.87
2018-06-30T12:08:48.972Z,2.67
2018-06-30T12:09:52.958Z,2.60
2018-06-30T12:10:57.135Z,3.10
2018-06-30T12:12:01.494Z,2.53
2018-06-30T12:13:05.582Z,2.60
2018-06-30T12:14:09.976Z,2.63
2018-06-30T12:15:14.093Z,4.70
2018-06-30T12:16:18.203Z,2.47
2018-06-30T12:17:22.569Z,2.30
2018-06-30T12:18:26.777Z,2.60
2018-06-30T12:19:30.931Z,2.60
2018-06-30T12:20:34.819Z,3.20
2018-06-30T12:21:39.017Z,2.53
2018-06-30T12:22:43.143Z,2.77
2018-06-30T12:23:47.242Z,8.33
2018-06-30T12:24:51.573Z,7.97
2018-06-30T12:25:55.716Z,11.13
2018-06-30T12:26:59.745Z,4.60
2018-06-30T12:28:03.947Z,3.30
2018-06-30T12:29:08.089Z,2.80
2018-06-30T12:30:12.210Z,2.67
2018-06-30T12:31:16.372Z,2.93
2018-06-30T12:32:20.657Z,2.73
2018-06-30T12:33:24.697Z,3.60
2018-06-30T12:34:28.532Z,3.23
2018-06-30T12:35:32.554Z,2.50
2018-06-30T12:36:36.642Z,3.07
2018-06-30T12:37:40.707Z,3.27
2018-06-30T12:38:44.512Z,2.90
2018-06-30T12:39:48.524Z,2.90
2018-06-30T12:40:52.642Z,3.33
2018-06-30T12:41:56.701Z,2.47
2018-06-30T12:43:00.556Z,2.47
2018-06-30T12:44:04.719Z,2.60
2018-06-30T12:45:08.936Z,2.93
2018-06-30T12:46:13.016Z,2.40
2018-06-30T12:47:17.204Z,2.53
2018-06-30T12:48:22.021Z,2.70
2018-06-30T12:49:26.225Z,2.50
2018-06-30T12:50:30.363Z,2.53
2018-06-30T12:51:34.628Z,2.50
2018-06-30T12:52:38.875Z,2.93
2018-06-30T12:53:43.021Z,3.13
2018-06-30T12:54:47.280Z,5.70
2018-06-30T12:55:51.407Z,12.40
2018-06-30T12:56:55.601Z,13.77
2018-06-30T12:57:59.719Z,28.97
2018-06-30T12:59:03.915Z,20.57
2018-06-30T13:00:08.090Z,13.47
2018-06-30T13:01:12.235Z,12.67
2018-06-30T13:02:16.506Z,9.60
2018-06-30T13:03:20.819Z,6.97
2018-06-30T13:04:24.982Z,5.43
2018-06-30T13:05:29.460Z,4.50
2018-06-30T13:06:33.587Z,4.30
2018-06-30T13:07:37.793Z,4.17
2018-06-30T13:08:42.069Z,3.90
2018-06-30T13:09:46.233Z,4.60
2018-06-30T13:10:50.418Z,3.63
2018-06-30T13:11:54.650Z,4.20
2018-06-30T13:12:58.786Z,5.23
2018-06-30T13:14:03.024Z,36.20
2018-06-30T13:15:07.194Z,92.27
2018-06-30T13:16:11.346Z,61.27
2018-06-30T13:17:15.529Z,33.13
2018-06-30T13:18:19.669Z,22.10
2018-06-30T13:19:23.876Z,16.83
2018-06-30T13:20:28.027Z,25.67
2018-06-30T13:21:32.218Z,30.03
2018-06-30T13:22:36.359Z,16.90
2018-06-30T13:23:40.427Z,9.53
2018-06-30T13:24:44.528Z,6.43
2018-06-30T13:25:48.787Z,5.50
2018-06-30T13:26:52.918Z,6.00
2018-06-30T13:27:57.056Z,8.13
2018-06-30T13:29:01.347Z,5.77
2018-06-30T13:30:06.240Z,6.20
2018-06-30T13:31:10.315Z,6.03
2018-06-30T13:32:14.416Z,5.60
2018-06-30T13:33:18.545Z,5.53
2018-06-30T13:34:22.740Z,5.13
2018-06-30T13:35:26.929Z,4.53
2018-06-30T13:36:31.085Z,4.47
2018-06-30T13:37:35.201Z,4.40
2018-06-30T13:38:39.365Z,4.27
2018-06-30T13:39:43.570Z,4.40
2018-06-30T13:40:47.645Z,4.23
2018-06-30T13:41:51.943Z,4.60
2018-06-30T13:42:56.066Z,4.87
2018-06-30T13:44:00.158Z,4.13
2018-06-30T13:45:04.725Z,4.33
2018-06-30T13:46:08.890Z,4.97
2018-06-30T13:47:13.099Z,4.37
2018-06-30T13:48:17.242Z,4.83
2018-06-30T13:49:21.391Z,4.43
2018-06-30T13:50:25.554Z,4.70
2018-06-30T13:51:29.781Z,4.30
2018-06-30T13:52:33.632Z,5.77
2018-06-30T13:53:37.614Z,4.60
2018-06-30T13:54:41.740Z,4.50
2018-06-30T13:55:45.907Z,4.43
2018-06-30T13:56:50.060Z,4.80
2018-06-30T13:57:54.214Z,4.70
2018-06-30T13:58:58.534Z,4.60
2018-06-30T14:00:02.703Z,4.33
2018-06-30T14:01:06.811Z,4.77
2018-06-30T14:02:10.986Z,5.17
2018-06-30T14:03:15.107Z,5.00
2018-06-30T14:04:19.157Z,5.03
2018-06-30T14:05:23.286Z,4.67
2018-06-30T14:06:27.400Z,5.00
2018-06-30T14:07:31.523Z,4.77
2018-06-30T14:08:35.737Z,4.97
2018-06-30T14:09:39.852Z,4.73
2018-06-30T14:10:44.009Z,4.50
2018-06-30T14:11:48.172Z,4.70
2018-06-30T14:12:52.550Z,4.50
2018-06-30T14:13:56.718Z,4.90